Time;durP1;ratioP1;P1;durP2;ratioP2;P2;SDS_P1;SDS_P2;PMS_P1;PMS_P2;Temp;Humidity;BMP_temperature;BMP_pressure;BME280_temperature;BME280_humidity;BME280_pressure;Samples;Min_cycle;Max_cycle;Signal;HPM_P1;HPM_P2
2020/12/13 00:02:08;;;;;;;57.67;36.53;;;;;;;6.43;63.12;100540.50;6092046;29;20233;-56
2020/12/13 00:05:30;;;;;;;54.83;35.67;;;;;;;6.47;63.04;100547.41;6128660;28;20239;-58
2020/12/13 00:08:50;;;;;;;58.90;35.67;;;;;;;6.49;62.78;100539.66;6113944;28;20227;-57
2020/12/13 00:12:11;;;;;;;59.03;36.60;;;;;;;6.20;63.62;100544.72;6106039;28;20247;-56
2020/12/13 00:15:33;;;;;;;57.30;38.03;;;;;;;6.40;63.10;100543.09;6122699;28;20229;-55
2020/12/13 00:18:53;;;;;;;55.47;38.33;;;;;;;6.56;62.66;100540.56;6105693;29;20235;-57
2020/12/13 00:22:15;;;;;;;51.00;36.57;;;;;;;6.59;62.70;100540.56;6107467;28;20727;-56
2020/12/13 00:25:35;;;;;;;58.17;38.03;;;;;;;6.14;63.85;100549.88;6126009;28;20224;-57
2020/12/13 00:28:55;;;;;;;59.53;37.60;;;;;;;6.31;63.79;100545.66;6128413;28;20382;-57
2020/12/13 00:32:16;;;;;;;58.63;39.50;;;;;;;6.38;63.59;100550.00;6096760;28;20228;-53
2020/12/13 00:35:37;;;;;;;55.90;33.37;;;;;;;6.48;63.02;100553.47;6121179;28;20240;-56
2020/12/13 00:38:57;;;;;;;61.60;34.77;;;;;;;6.43;62.96;100553.44;6117470;28;20232;-55
2020/12/13 00:42:18;;;;;;;55.47;33.30;;;;;;;6.06;64.25;100557.59;6115815;28;20867;-57
2020/12/13 00:45:38;;;;;;;55.10;33.57;;;;;;;5.99;64.50;100569.63;6123172;28;20232;-57
2020/12/13 00:48:59;;;;;;;60.00;35.57;;;;;;;6.10;64.31;100573.13;6119893;28;20239;-56
2020/12/13 00:52:20;;;;;;;52.77;32.67;;;;;;;6.24;63.94;100578.38;6114489;28;20235;-57
2020/12/13 00:55:40;;;;;;;57.63;35.63;;;;;;;6.44;63.12;100587.97;6111358;28;20228;-57
2020/12/13 00:59:06;;;;;;;55.47;34.63;;;;;;;6.29;63.70;100591.31;6112829;28;20235;-56
2020/12/13 01:02:26;;;;;;;57.77;35.07;;;;;;;6.17;64.02;100594.72;6098492;28;20231;-57
2020/12/13 01:05:48;;;;;;;55.77;33.77;;;;;;;6.21;63.61;100591.28;6132091;28;20308;-57
2020/12/13 01:09:08;;;;;;;54.70;34.53;;;;;;;6.29;63.64;100599.09;6105692;29;20243;-57
2020/12/13 01:12:29;;;;;;;58.17;35.20;;;;;;;6.11;63.85;100600.72;6108993;28;20240;-55
2020/12/13 01:15:50;;;;;;;53.83;32.87;;;;;;;6.36;63.48;100594.78;6118288;28;20233;-57
2020/12/13 01:19:11;;;;;;;53.93;33.27;;;;;;;6.35;63.44;100588.75;6124800;28;20239;-56
2020/12/13 01:22:36;;;;;;;50.93;30.63;;;;;;;6.36;63.20;100593.09;6115240;28;20311;-58
2020/12/13 01:25:57;;;;;;;52.60;33.07;;;;;;;6.22;63.46;100595.63;6108759;29;20232;-53
2020/12/13 01:29:17;;;;;;;55.33;33.27;;;;;;;6.31;63.39;100593.06;6104500;29;20248;-57
2020/12/13 01:32:39;;;;;;;52.57;34.10;;;;;;;6.44;62.50;100604.34;6103964;28;20231;-58
2020/12/13 01:35:59;;;;;;;55.43;34.13;;;;;;;6.32;63.16;100601.69;6120014;28;20231;-56
2020/12/13 01:39:21;;;;;;;47.50;32.07;;;;;;;6.39;62.72;100603.44;6128782;28;20318;-58
2020/12/13 01:42:43;;;;;;;50.93;31.93;;;;;;;6.24;63.16;100603.34;6091757;29;20236;-56
2020/12/13 01:46:04;;;;;;;51.67;31.37;;;;;;;6.44;62.65;100609.50;6127478;28;20235;-57
2020/12/13 01:49:29;;;;;;;47.53;32.17;;;;;;;6.52;62.29;100600.94;6117537;28;20243;-53
2020/12/13 01:52:50;;;;;;;51.23;32.97;;;;;;;6.39;62.61;100608.59;6093752;29;20240;-57
2020/12/13 01:56:12;;;;;;;45.87;30.10;;;;;;;6.20;63.06;100597.31;6106808;29;20224;-57
2020/12/13 01:59:35;;;;;;;57.07;34.20;;;;;;;6.19;63.33;100603.34;6117598;28;20243;-57
2020/12/13 02:03:01;;;;;;;46.57;30.57;;;;;;;6.11;63.73;100611.06;6117951;28;20227;-56
2020/12/13 02:06:27;;;;;;;48.17;32.27;;;;;;;6.01;64.20;100618.72;6116558;28;20240;-56
2020/12/13 02:09:48;;;;;;;53.37;32.03;;;;;;;6.11;63.35;100618.81;6104159;29;20571;-55
2020/12/13 02:13:09;;;;;;;50.87;34.63;;;;;;;6.27;62.87;100616.31;6095724;29;20259;-56
2020/12/13 02:16:29;;;;;;;48.87;31.43;;;;;;;6.39;62.68;100621.53;6117612;28;20232;-58
2020/12/13 02:19:50;;;;;;;46.83;28.77;;;;;;;6.45;62.52;100618.97;6111003;28;20228;-57
2020/12/13 02:23:12;;;;;;;51.63;34.47;;;;;;;6.44;62.28;100625.03;6107570;28;20227;-58
2020/12/13 02:26:32;;;;;;;48.40;30.47;;;;;;;6.65;61.75;100625.97;6105861;29;20240;-57
2020/12/13 02:29:52;;;;;;;49.80;31.43;;;;;;;6.67;61.78;100621.69;6105348;29;20660;-57
2020/12/13 02:33:13;;;;;;;48.77;29.63;;;;;;;6.65;61.83;100626.84;6109374;28;20571;-55
2020/12/13 02:36:34;;;;;;;46.50;30.87;;;;;;;6.74;61.55;100633.78;6121171;28;20243;-56
2020/12/13 02:39:55;;;;;;;45.67;29.60;;;;;;;6.73;61.55;100629.47;6115617;28;20334;-57
2020/12/13 02:43:15;;;;;;;46.80;28.60;;;;;;;6.54;62.17;100640.59;6109713;28;20232;-57
2020/12/13 02:46:36;;;;;;;44.03;27.33;;;;;;;6.66;61.95;100638.06;6102575;29;20233;-58
2020/12/13 02:49:56;;;;;;;48.60;29.37;;;;;;;6.75;61.58;100648.44;6103834;29;20228;-56
2020/12/13 02:53:17;;;;;;;42.20;27.40;;;;;;;6.75;61.80;100645.00;6121498;28;20273;-55
2020/12/13 02:56:41;;;;;;;48.13;31.23;;;;;;;6.74;61.43;100643.25;6131007;28;20216;-58
2020/12/13 03:00:01;;;;;;;45.73;30.33;;;;;;;6.80;61.31;100651.91;6109357;29;20247;-55
2020/12/13 03:03:21;;;;;;;47.33;29.90;;;;;;;6.67;61.52;100661.38;6114693;28;20243;-57
2020/12/13 03:06:42;;;;;;;42.13;29.17;;;;;;;6.72;61.58;100660.50;6129911;28;20231;-57
2020/12/13 03:10:03;;;;;;;45.17;30.73;;;;;;;6.42;62.40;100665.53;6110804;28;20224;-57
2020/12/13 03:13:25;;;;;;;52.13;31.77;;;;;;;6.34;62.67;100672.41;6121060;28;20234;-57
2020/12/13 03:16:45;;;;;;;44.10;31.20;;;;;;;6.44;62.13;100666.41;6112073;28;20231;-57
2020/12/13 03:20:05;;;;;;;44.87;30.77;;;;;;;6.33;62.76;100681.00;6131287;28;20247;-57
2020/12/13 03:23:25;;;;;;;44.17;28.23;;;;;;;6.51;62.27;100680.25;6124699;28;20246;-53
2020/12/13 03:26:46;;;;;;;41.27;29.83;;;;;;;6.36;62.71;100674.97;6117003;28;20236;-56
2020/12/13 03:30:07;;;;;;;44.33;28.63;;;;;;;6.40;62.41;100667.25;6130097;28;20235;-53
2020/12/13 03:33:27;;;;;;;53.23;30.63;;;;;;;6.29;62.63;100682.69;6111195;28;20251;-56
2020/12/13 03:36:48;;;;;;;44.27;28.23;;;;;;;6.42;62.75;100662.97;6102798;28;20236;-56
2020/12/13 03:40:11;;;;;;;50.30;31.03;;;;;;;6.44;62.02;100670.75;6106941;29;20232;-54
2020/12/13 03:43:31;;;;;;;45.53;30.67;;;;;;;6.47;62.13;100671.59;6102006;29;20540;-57
2020/12/13 03:46:52;;;;;;;46.13;30.40;;;;;;;6.55;62.11;100678.53;6120837;28;20240;-56
2020/12/13 03:50:13;;;;;;;51.07;29.97;;;;;;;6.46;62.06;100675.06;6115332;28;20239;-56
2020/12/13 03:53:33;;;;;;;45.83;29.23;;;;;;;6.48;62.13;100688.84;6115806;28;20224;-53
2020/12/13 03:56:54;;;;;;;43.70;27.03;;;;;;;6.50;62.08;100694.91;6104073;29;20501;-57
2020/12/13 04:00:14;;;;;;;46.63;28.13;;;;;;;6.42;62.27;100693.16;6107791;29;20236;-57
2020/12/13 04:03:35;;;;;;;45.07;28.50;;;;;;;6.53;62.08;100701.81;6101521;29;20231;-59
2020/12/13 04:06:56;;;;;;;46.57;28.80;;;;;;;6.49;62.33;100705.25;6122815;28;20621;-57
2020/12/13 04:10:16;;;;;;;45.83;29.30;;;;;;;6.40;62.34;100705.22;6101850;29;20236;-58
2020/12/13 04:13:37;;;;;;;43.63;29.97;;;;;;;6.38;62.63;100706.88;6116334;28;20228;-58
2020/12/13 04:16:58;;;;;;;47.63;33.33;;;;;;;6.47;62.38;100715.56;6124428;28;20323;-57
2020/12/13 04:20:20;;;;;;;48.57;31.10;;;;;;;6.37;62.70;100713.78;6124651;28;20236;-57
2020/12/13 04:23:40;;;;;;;43.43;28.73;;;;;;;6.52;62.34;100714.75;6117852;28;20231;-57
2020/12/13 04:27:01;;;;;;;42.60;30.60;;;;;;;6.55;61.91;100720.78;6111719;28;20750;-54
2020/12/13 04:30:22;;;;;;;45.03;28.80;;;;;;;6.67;61.60;100720.03;6124053;28;20231;-56
2020/12/13 04:33:42;;;;;;;45.97;28.97;;;;;;;6.49;61.69;100723.34;6108141;28;20270;-56
2020/12/13 04:37:04;;;;;;;43.50;28.40;;;;;;;6.62;61.60;100730.34;6122223;28;20275;-50
2020/12/13 04:40:24;;;;;;;47.50;28.70;;;;;;;6.32;62.48;100728.44;6100819;29;20315;-55
2020/12/13 04:43:45;;;;;;;46.90;31.03;;;;;;;6.43;62.48;100729.34;6122421;28;20235;-57
2020/12/13 04:47:07;;;;;;;43.17;31.93;;;;;;;6.43;62.32;100719.00;6106586;28;20608;-57
2020/12/13 04:50:30;;;;;;;45.93;28.80;;;;;;;6.49;62.30;100732.00;6107198;28;20925;-58
2020/12/13 04:54:03;;;;;;;46.97;28.13;;;;;;;6.42;62.47;100730.22;6121152;28;20231;-57
2020/12/13 04:57:23;;;;;;;44.43;29.23;;;;;;;6.29;62.97;100736.16;6093875;28;20520;-57
2020/12/13 05:00:50;;;;;;;43.70;31.73;;;;;;;6.17;63.21;100751.59;6131165;28;20231;-54
2020/12/13 05:04:10;;;;;;;47.50;31.60;;;;;;;6.24;63.17;100750.75;6105664;29;20232;-57
2020/12/13 05:07:31;;;;;;;43.20;29.17;;;;;;;6.21;63.39;100761.97;6101571;28;20245;-58
2020/12/13 05:10:53;;;;;;;50.27;29.53;;;;;;;6.31;63.05;100756.00;6109664;29;20228;-58
2020/12/13 05:14:13;;;;;;;44.87;28.47;;;;;;;6.18;63.47;100761.06;6108757;28;20230;-56
2020/12/13 05:17:34;;;;;;;45.10;29.87;;;;;;;6.40;63.18;100755.22;6093017;29;20240;-57
2020/12/13 05:20:55;;;;;;;37.83;28.80;;;;;;;6.55;62.55;100766.50;6120283;28;20642;-53
2020/12/13 05:24:16;;;;;;;45.33;30.33;;;;;;;6.67;62.03;100766.59;6119222;28;20314;-56
2020/12/13 05:27:40;;;;;;;51.33;32.73;;;;;;;6.57;62.50;100764.78;6092969;29;20239;-57
2020/12/13 05:31:01;;;;;;;47.43;31.77;;;;;;;6.64;62.27;100769.16;6108164;29;20232;-57
2020/12/13 05:34:21;;;;;;;43.67;29.30;;;;;;;6.62;62.00;100763.97;6105891;29;20535;-57
2020/12/13 05:37:42;;;;;;;43.43;29.33;;;;;;;6.35;63.03;100771.56;6110443;28;20602;-51
2020/12/13 05:41:04;;;;;;;43.77;29.80;;;;;;;6.39;62.73;100774.16;6124911;28;20240;-55
2020/12/13 05:44:41;;;;;;;43.53;28.27;;;;;;;6.33;63.13;100787.06;6104620;29;20236;-56
2020/12/13 05:51:44;;;;;;;47.70;31.03;;;;;;;6.24;63.46;100779.22;6085187;29;20232;-56
2020/12/13 05:55:04;;;;;;;46.83;30.77;;;;;;;6.30;63.48;100779.25;6104482;29;20299;-54
2020/12/13 05:58:27;;;;;;;43.20;28.37;;;;;;;6.50;62.80;100775.13;6099454;29;20497;-54
2020/12/13 06:01:53;;;;;;;47.73;33.33;;;;;;;6.24;63.69;100771.44;6123923;28;20730;-54
2020/12/13 06:05:15;;;;;;;40.60;28.03;;;;;;;6.33;63.29;100771.53;6108976;28;20729;-54
2020/12/13 06:09:02;;;;;;;53.93;33.17;;;;;;;6.42;63.23;100781.97;6118309;28;20314;-57
2020/12/13 06:12:28;;;;;;;48.47;30.47;;;;;;;5.98;64.41;100782.44;6113622;28;20236;-56
2020/12/13 06:15:49;;;;;;;47.57;30.53;;;;;;;6.14;64.17;100790.34;6119220;28;20244;-55
2020/12/13 06:19:12;;;;;;;50.53;30.10;;;;;;;6.00;64.21;100785.91;6115923;28;20247;-57
2020/12/13 06:22:33;;;;;;;45.50;30.33;;;;;;;6.18;63.87;100792.09;6114587;28;20230;-56
2020/12/13 06:25:54;;;;;;;55.13;32.73;;;;;;;6.24;63.45;100805.06;6122299;28;20244;-51
2020/12/13 06:29:14;;;;;;;46.10;29.43;;;;;;;6.27;63.57;100811.16;6128929;28;20239;-56
2020/12/13 06:32:39;;;;;;;59.00;34.83;;;;;;;6.40;63.23;100809.53;6120822;28;20239;-56
2020/12/13 06:36:01;;;;;;;58.97;35.77;;;;;;;5.99;64.48;100809.16;6130208;28;20513;-57
2020/12/13 06:39:22;;;;;;;58.43;35.03;;;;;;;6.00;64.11;100800.56;6119676;28;20232;-53
2020/12/13 06:42:45;;;;;;;54.80;32.93;;;;;;;6.28;63.71;100802.56;6114811;28;20240;-57
2020/12/13 06:46:13;;;;;;;60.90;35.10;;;;;;;6.21;63.57;100802.47;6124092;28;20238;-56
2020/12/13 06:49:33;;;;;;;50.27;31.33;;;;;;;6.24;63.88;100802.50;6129677;28;20319;-56
2020/12/13 06:52:54;;;;;;;55.60;33.77;;;;;;;6.24;63.62;100803.38;6110280;28;20238;-57
2020/12/13 06:56:15;;;;;;;56.07;32.90;;;;;;;6.25;63.68;100812.84;6130282;28;20323;-55
2020/12/13 06:59:35;;;;;;;58.27;33.47;;;;;;;6.25;63.90;100812.84;6128828;28;20322;-56
2020/12/13 07:02:57;;;;;;;61.85;39.80;;;;;;;6.08;64.28;100812.69;6104235;29;20719;-57
2020/12/13 07:06:20;;;;;;;57.07;35.83;;;;;;;6.08;64.53;100810.09;6118581;28;20247;-57
2020/12/13 07:09:42;;;;;;;65.67;38.70;;;;;;;6.19;64.49;100817.13;6116010;28;20663;-55
2020/12/13 07:13:02;;;;;;;64.57;36.10;;;;;;;6.11;64.45;100812.75;6113816;28;20223;-58
2020/12/13 07:16:31;;;;;;;65.10;37.47;;;;;;;5.78;65.51;100814.94;6124992;28;20263;-56
2020/12/13 07:19:55;;;;;;;57.77;34.47;;;;;;;5.65;66.27;100827.75;6106074;29;20255;-56
2020/12/13 07:23:15;;;;;;;64.60;37.17;;;;;;;5.85;65.56;100829.66;6112364;28;20232;-55
2020/12/13 07:26:38;;;;;;;62.30;37.33;;;;;;;5.85;65.59;100829.66;6124951;28;20247;-56
2020/12/13 07:29:59;;;;;;;66.27;37.03;;;;;;;6.03;65.35;100839.34;6129124;28;20244;-58
2020/12/13 07:33:19;;;;;;;68.53;37.97;;;;;;;5.90;65.45;100834.03;6106551;28;20240;-56
2020/12/13 07:36:39;;;;;;;65.03;37.80;;;;;;;6.15;65.03;100848.97;6120637;28;20263;-57
2020/12/13 07:40:11;;;;;;;53.90;34.43;;;;;;;5.88;65.61;100855.56;6125597;28;20232;-55
2020/12/13 07:43:33;;;;;;;59.00;36.37;;;;;;;6.07;65.39;100861.84;6100546;28;20267;-59
2020/12/13 07:46:53;;;;;;;60.90;37.37;;;;;;;6.28;64.54;100850.81;6102398;29;20252;-56
2020/12/13 07:50:13;;;;;;;55.67;36.07;;;;;;;6.20;64.53;100862.81;6105013;28;20227;-58
2020/12/13 07:53:34;;;;;;;60.57;34.83;;;;;;;6.19;64.30;100854.19;6124538;28;20512;-58
2020/12/13 07:56:56;;;;;;;56.77;34.27;;;;;;;6.23;64.25;100852.50;6124754;28;20243;-58
2020/12/13 08:00:17;;;;;;;62.43;36.97;;;;;;;6.30;64.39;100852.56;6110643;28;20232;-56
2020/12/13 08:03:42;;;;;;;63.67;37.87;;;;;;;6.02;65.23;100866.06;6123989;28;20240;-55
2020/12/13 08:07:04;;;;;;;64.70;36.43;;;;;;;5.94;65.85;100862.53;6122260;28;20224;-56
2020/12/13 08:10:28;;;;;;;68.00;38.23;;;;;;;6.16;64.87;100866.22;6119863;28;20622;-58
2020/12/13 08:13:49;;;;;;;54.63;34.43;;;;;;;6.32;64.23;100878.47;6124682;28;20240;-58
2020/12/13 08:17:17;;;;;;;67.03;36.70;;;;;;;6.07;65.12;100877.34;6124667;28;20236;-56
2020/12/13 08:20:39;;;;;;;63.00;37.77;;;;;;;5.91;65.78;100876.25;6111199;28;20513;-57
2020/12/13 08:24:03;;;;;;;51.77;33.50;;;;;;;5.99;65.66;100886.72;6109560;28;20244;-55
2020/12/13 08:27:24;;;;;;;59.53;36.70;;;;;;;6.07;65.41;100893.72;6100678;29;20706;-55
2020/12/13 08:30:45;;;;;;;53.33;32.90;;;;;;;6.21;64.51;100899.03;6103511;28;20228;-53
2020/12/13 08:34:07;;;;;;;57.10;34.80;;;;;;;6.20;64.71;100901.59;6123690;28;20236;-57
2020/12/13 08:37:27;;;;;;;56.30;33.60;;;;;;;6.17;64.64;100904.16;6123798;28;20618;-55
2020/12/13 08:40:49;;;;;;;58.07;35.17;;;;;;;6.13;65.04;100897.19;6116358;28;20244;-55
2020/12/13 08:44:25;;;;;;;60.17;37.50;;;;;;;6.02;65.30;100907.44;6123542;28;20231;-57
2020/12/13 08:47:45;;;;;;;65.07;35.97;;;;;;;5.91;65.55;100912.44;6114857;28;20236;-55
2020/12/13 08:51:08;;;;;;;57.17;33.87;;;;;;;6.23;64.85;100910.25;6101149;29;20244;-55
2020/12/13 08:54:43;;;;;;;65.17;36.90;;;;;;;6.04;65.52;100914.34;6100102;29;20224;-57
2020/12/13 08:58:04;;;;;;;60.53;36.40;;;;;;;6.16;65.10;100917.94;6105714;28;20228;-57
2020/12/13 09:01:27;;;;;;;61.50;37.03;;;;;;;5.94;65.47;100927.16;6120918;28;20243;-56
2020/12/13 09:04:54;;;;;;;56.23;34.57;;;;;;;5.89;65.94;100927.97;6123263;28;20258;-56
2020/12/13 09:08:21;;;;;;;50.40;31.90;;;;;;;6.23;65.10;100930.09;6111717;28;20240;-57
2020/12/13 09:11:42;;;;;;;58.10;33.27;;;;;;;6.21;65.06;100931.78;6122940;28;20236;-55
2020/12/13 09:15:08;;;;;;;50.40;32.27;;;;;;;6.39;64.64;100937.13;6099194;29;20240;-57
2020/12/13 09:18:28;;;;;;;51.80;30.50;;;;;;;6.23;65.14;100930.94;6099502;29;20248;-56
2020/12/13 09:21:52;;;;;;;53.20;33.77;;;;;;;6.34;64.92;100937.94;6102047;28;20595;-55
2020/12/13 09:25:13;;;;;;;59.43;37.60;;;;;;;5.97;65.73;100935.84;6106394;28;20343;-54
2020/12/13 09:28:33;;;;;;;56.93;34.43;;;;;;;6.09;65.49;100938.56;6123286;28;20236;-57
2020/12/13 09:31:53;;;;;;;52.47;32.57;;;;;;;6.06;65.71;100943.69;6122361;28;20788;-56
2020/12/13 09:35:14;;;;;;;52.40;32.37;;;;;;;5.92;65.91;100951.25;6122007;28;20232;-54
2020/12/13 09:38:35;;;;;;;55.37;35.03;;;;;;;6.30;65.25;100953.44;6121918;28;20263;-56
2020/12/13 09:41:56;;;;;;;57.80;34.77;;;;;;;6.14;65.52;100951.53;6120147;28;20243;-52
2020/12/13 09:45:17;;;;;;;58.97;34.23;;;;;;;6.21;65.45;100957.66;6111167;28;20228;-57
2020/12/13 09:48:37;;;;;;;57.77;34.37;;;;;;;6.34;65.04;100958.63;6121969;28;20539;-56
2020/12/13 09:51:59;;;;;;;59.93;35.50;;;;;;;6.34;64.85;100959.53;6111064;29;20244;-54
2020/12/13 09:55:20;;;;;;;58.33;37.93;;;;;;;6.33;64.91;100952.59;6099887;29;20569;-56
2020/12/13 09:58:41;;;;;;;57.30;31.87;;;;;;;6.20;65.31;100961.06;6118889;28;20236;-58
2020/12/13 10:02:01;;;;;;;60.20;35.17;;;;;;;6.29;65.16;100974.13;6112037;28;20247;-55
2020/12/13 10:05:26;;;;;;;61.77;35.73;;;;;;;6.42;65.08;100968.22;6121459;28;20543;-57
2020/12/13 10:12:31;;;;;;;59.50;35.17;;;;;;;6.03;66.36;100964.34;6116343;28;20610;-56
2020/12/13 10:15:52;;;;;;;67.10;38.23;;;;;;;6.17;66.03;100961.91;6107824;28;20244;-56
2020/12/13 10:19:12;;;;;;;64.17;35.50;;;;;;;6.28;65.61;100959.44;6121376;28;20236;-56
2020/12/13 10:22:33;;;;;;;63.07;34.43;;;;;;;6.20;66.01;100971.41;6120490;28;20247;-57
2020/12/13 10:25:53;;;;;;;59.30;36.20;;;;;;;6.28;65.62;100964.59;6104677;28;20247;-56
2020/12/13 10:29:14;;;;;;;67.13;37.87;;;;;;;6.16;65.80;100967.06;6111123;28;20236;-57
2020/12/13 10:32:36;;;;;;;64.97;38.27;;;;;;;5.95;66.76;100970.22;6097747;29;20233;-56
2020/12/13 10:35:56;;;;;;;67.93;37.77;;;;;;;6.04;66.68;100962.63;6107616;28;20224;-56
2020/12/13 10:39:19;;;;;;;76.47;40.17;;;;;;;6.08;66.67;100962.66;6119297;28;20216;-55
2020/12/13 10:42:40;;;;;;;74.07;39.97;;;;;;;6.16;66.20;100970.50;6118843;28;20236;-54
2020/12/13 10:46:02;;;;;;;70.37;37.67;;;;;;;5.68;67.89;100963.84;6121897;28;20260;-59
2020/12/13 10:49:23;;;;;;;76.60;38.17;;;;;;;5.81;67.50;100963.16;6121616;28;20236;-52
2020/12/13 10:52:44;;;;;;;62.47;38.83;;;;;;;6.14;66.64;100963.59;6096414;29;20228;-55
2020/12/13 10:56:04;;;;;;;63.63;37.97;;;;;;;6.26;66.24;100967.19;6109013;28;20232;-50
2020/12/13 10:59:25;;;;;;;70.20;39.40;;;;;;;6.27;66.10;100968.06;6117557;28;20247;-53
2020/12/13 11:02:45;;;;;;;71.00;35.93;;;;;;;6.18;66.20;100958.47;6121147;28;20637;-54
2020/12/13 11:06:09;;;;;;;69.23;38.07;;;;;;;6.29;66.01;100967.22;6118322;28;20245;-53
2020/12/13 11:09:30;;;;;;;73.30;40.87;;;;;;;6.35;66.04;100957.78;6103412;28;20236;-53
2020/12/13 11:12:50;;;;;;;67.47;38.70;;;;;;;6.21;66.52;100958.50;6106998;28;20273;-56
2020/12/13 11:16:11;;;;;;;77.70;39.30;;;;;;;5.82;67.59;100951.13;6114406;28;20314;-58
2020/12/13 11:19:31;;;;;;;68.63;38.87;;;;;;;6.20;66.76;100954.16;6125999;28;20239;-57
2020/12/13 11:22:52;;;;;;;84.70;42.80;;;;;;;5.90;67.57;100958.13;6124825;28;20328;-57
2020/12/13 11:26:12;;;;;;;76.77;37.63;;;;;;;6.11;66.81;100957.53;6102748;29;20236;-56
2020/12/13 11:29:33;;;;;;;75.40;41.30;;;;;;;6.37;66.07;100962.13;6102524;29;20646;-57
2020/12/13 11:32:53;;;;;;;68.80;40.03;;;;;;;6.26;66.37;100967.19;6101152;29;20323;-57
2020/12/13 11:36:14;;;;;;;75.47;40.20;;;;;;;6.39;65.84;100964.72;6118443;28;20236;-55
2020/12/13 11:39:36;;;;;;;76.73;39.93;;;;;;;6.30;66.29;100965.47;6125548;28;20236;-57
2020/12/13 11:42:57;;;;;;;64.83;39.03;;;;;;;6.54;65.79;100962.31;6113085;28;20239;-52
2020/12/13 11:46:19;;;;;;;77.00;42.30;;;;;;;6.35;66.08;100960.38;6125765;28;20263;-57
2020/12/13 11:49:39;;;;;;;77.37;40.13;;;;;;;6.23;66.84;100961.97;6124682;28;20235;-57
2020/12/13 11:53:00;;;;;;;73.13;41.43;;;;;;;6.39;66.26;100957.81;6116839;28;20243;-53
2020/12/13 11:56:23;;;;;;;71.30;39.87;;;;;;;6.20;66.91;100971.41;6125645;28;20243;-52
2020/12/13 11:59:44;;;;;;;70.60;39.43;;;;;;;6.50;65.85;100966.56;6113719;28;20233;-53
2020/12/13 12:03:04;;;;;;;66.73;37.63;;;;;;;6.76;65.09;100965.09;6118820;28;20244;-54
2020/12/13 12:06:26;;;;;;;64.30;37.10;;;;;;;6.79;65.06;100962.53;6124450;28;20236;-54
2020/12/13 12:09:47;;;;;;;66.73;38.23;;;;;;;6.68;65.00;100962.44;6123576;28;20321;-56
2020/12/13 12:13:08;;;;;;;79.00;43.77;;;;;;;6.50;65.74;100965.72;6124087;28;20634;-54
2020/12/13 12:16:29;;;;;;;71.97;38.57;;;;;;;6.47;66.14;100963.09;6106361;28;20240;-55
2020/12/13 12:19:52;;;;;;;70.37;41.67;;;;;;;6.56;65.56;100960.59;6364467;23;20231;-58
2020/12/13 12:23:12;;;;;;;78.03;39.33;;;;;;;6.31;66.73;100975.84;6132042;28;20224;-56
2020/12/13 12:26:34;;;;;;;71.13;37.00;;;;;;;6.32;66.66;100976.75;6140169;28;20232;-53
2020/12/13 12:29:55;;;;;;;75.20;39.63;;;;;;;6.20;67.11;100986.94;6123760;28;20271;-57
2020/12/13 12:33:15;;;;;;;76.13;39.60;;;;;;;6.41;66.52;100987.16;6123345;28;20235;-57
2020/12/13 12:36:37;;;;;;;76.83;42.27;;;;;;;6.45;66.40;100983.75;6138236;28;20675;-54
2020/12/13 12:39:58;;;;;;;68.97;38.63;;;;;;;6.51;66.14;100982.97;6132221;28;20413;-56
2020/12/13 12:43:18;;;;;;;68.17;37.77;;;;;;;6.56;66.01;100981.28;6140093;28;20285;-56
2020/12/13 12:46:39;;;;;;;72.70;42.47;;;;;;;6.80;65.14;100988.41;6144899;28;20252;-57
2020/12/13 12:50:00;;;;;;;70.67;40.40;;;;;;;6.43;66.42;100984.59;6123963;28;20243;-55
2020/12/13 12:53:20;;;;;;;64.70;41.60;;;;;;;6.20;67.45;100984.34;6128692;28;20238;-55
2020/12/13 12:56:42;;;;;;;66.33;39.83;;;;;;;6.21;67.61;100996.44;6130349;28;20232;-57
2020/12/13 13:00:28;;;;;;;74.40;38.73;;;;;;;6.53;66.67;100993.31;6144292;28;20247;-54
2020/12/13 13:03:57;;;;;;;78.00;42.40;;;;;;;6.60;66.48;100998.59;6147089;28;20640;-55
2020/12/13 13:07:18;;;;;;;73.73;41.17;;;;;;;6.57;66.31;101005.44;6136087;28;20227;-56
2020/12/13 13:10:40;;;;;;;69.17;40.27;;;;;;;6.65;66.14;101001.19;6123353;28;20279;-56
2020/12/13 13:14:01;;;;;;;70.67;39.67;;;;;;;6.28;67.65;101005.97;6124657;28;20235;-57
2020/12/13 13:17:22;;;;;;;71.27;38.33;;;;;;;6.03;68.67;101013.47;6136513;28;20231;-57
2020/12/13 13:20:43;;;;;;;74.20;39.90;;;;;;;6.10;68.74;101012.66;6121884;28;20618;-56
2020/12/13 13:24:04;;;;;;;71.57;40.00;;;;;;;6.26;67.99;101020.63;6106833;28;20343;-57
2020/12/13 13:27:26;;;;;;;68.13;39.17;;;;;;;6.29;67.96;101024.13;6099411;29;20233;-57
2020/12/13 13:30:47;;;;;;;73.47;42.50;;;;;;;6.31;67.93;101026.72;6098990;29;20237;-51
2020/12/13 13:34:08;;;;;;;69.83;39.67;;;;;;;6.16;68.66;101032.56;6099143;29;20244;-56
2020/12/13 13:37:29;;;;;;;77.80;42.47;;;;;;;6.23;68.46;101041.28;6119135;28;20330;-56
2020/12/13 13:40:49;;;;;;;67.13;39.33;;;;;;;6.23;68.36;101038.69;6112246;28;20234;-57
2020/12/13 13:44:14;;;;;;;67.93;39.60;;;;;;;6.58;67.33;101041.69;6098784;29;20233;-57
2020/12/13 13:47:47;;;;;;;65.43;36.87;;;;;;;6.74;66.67;101036.69;6099287;29;20248;-54
2020/12/13 13:51:07;;;;;;;66.53;35.97;;;;;;;6.94;66.03;101050.69;6105037;29;20251;-54
2020/12/13 13:54:29;;;;;;;70.37;38.93;;;;;;;7.05;65.67;101053.38;6121708;28;20232;-56
2020/12/13 13:57:50;;;;;;;65.20;37.03;;;;;;;7.19;65.25;101051.78;6118224;28;20577;-54
2020/12/13 14:01:12;;;;;;;67.87;42.90;;;;;;;7.04;65.85;101049.06;6109750;29;20265;-56
2020/12/13 14:04:32;;;;;;;69.23;39.37;;;;;;;7.18;65.31;101047.44;6121942;28;20599;-55
2020/12/13 14:08:07;;;;;;;66.63;37.47;;;;;;;7.09;65.30;101049.97;6113797;28;20224;-55
2020/12/13 14:11:29;;;;;;;67.50;38.90;;;;;;;7.05;65.75;101048.19;6121677;28;20232;-57
2020/12/13 14:14:49;;;;;;;65.17;38.90;;;;;;;7.07;65.90;101049.94;6116887;28;20224;-56
2020/12/13 14:18:10;;;;;;;64.27;37.17;;;;;;;7.09;66.26;101045.66;6098577;29;20232;-57
2020/12/13 14:21:33;;;;;;;67.60;37.67;;;;;;;7.18;65.92;101050.03;6110431;28;20251;-55
2020/12/13 14:24:53;;;;;;;74.50;42.03;;;;;;;6.95;66.72;101051.56;6111525;28;20572;-55
2020/12/13 14:28:14;;;;;;;67.53;37.90;;;;;;;7.06;66.21;101056.00;6120359;29;20617;-55
2020/12/13 14:31:35;;;;;;;69.13;38.33;;;;;;;7.18;65.89;101070.75;6121314;29;20240;-54
2020/12/13 14:34:56;;;;;;;66.90;39.03;;;;;;;7.06;65.96;101066.34;6110687;28;20605;-57
2020/12/13 14:38:16;;;;;;;72.17;39.17;;;;;;;7.19;65.63;101067.34;6121118;28;20232;-55
2020/12/13 14:41:37;;;;;;;66.87;37.93;;;;;;;7.16;66.05;101064.72;6117625;28;20236;-57
2020/12/13 14:44:58;;;;;;;70.33;37.67;;;;;;;7.26;65.66;101066.50;6118864;28;20251;-56
2020/12/13 14:48:18;;;;;;;62.97;36.83;;;;;;;7.32;65.76;101073.47;6121968;28;20235;-54
2020/12/13 14:51:39;;;;;;;55.83;35.40;;;;;;;7.31;65.70;101082.13;6116555;28;20240;-52
2020/12/13 14:54:59;;;;;;;64.03;37.57;;;;;;;7.33;65.75;101074.34;6102970;29;20233;-53
2020/12/13 14:58:20;;;;;;;62.07;35.67;;;;;;;7.46;65.52;101081.34;6116998;28;20284;-55
2020/12/13 15:01:41;;;;;;;70.05;42.70;;;;;;;7.30;65.39;101083.81;6108375;28;20736;-54
2020/12/13 15:05:02;;;;;;;64.53;37.83;;;;;;;7.30;65.81;101086.41;6112666;28;20228;-53
2020/12/13 15:08:22;;;;;;;60.93;36.57;;;;;;;7.38;65.95;101083.03;6122630;28;20240;-55
2020/12/13 15:11:45;;;;;;;68.50;37.10;;;;;;;7.49;66.14;101090.03;6125473;28;20247;-57
2020/12/13 15:15:09;;;;;;;67.73;36.37;;;;;;;7.46;65.32;101087.44;6118991;29;20380;-53
2020/12/13 15:18:34;;;;;;;58.63;32.00;;;;;;;7.51;65.36;101090.03;6102468;29;20508;-55
2020/12/13 15:21:56;;;;;;;60.20;33.47;;;;;;;7.40;65.64;101076.13;6101577;29;20319;-54
2020/12/13 15:25:16;;;;;;;64.60;35.97;;;;;;;7.49;66.23;101073.63;6105597;29;20233;-56
2020/12/13 15:28:37;;;;;;;59.67;33.57;;;;;;;7.62;65.29;101070.25;6102746;28;20228;-55
2020/12/13 15:31:57;;;;;;;49.17;32.80;;;;;;;7.52;65.64;101081.41;6125142;28;20331;-53
2020/12/13 15:35:18;;;;;;;43.10;28.63;;;;;;;7.22;66.60;101082.03;6112921;28;20236;-55